Accueil
METAR-TAF:

METAR-TAF

Aéroports :

Aéroport international de Taiyuan Wusu

Taiyuan, Chine

latitude: 37-47N, longitude: 112-33E, altitude: 779 m

Observation

Le bulletin a été fait il y a 27 minutes, à 22:00 UTC
Vent 2 kt de est/sud-est
Température 5°C
Humidité 65%
Pression 1018 hPa
Visibilité: 6000 m

METAR: ZBYN 062200Z 11001MPS 6000 NSC 05/M01 Q1018 NOSIG

Heure: 06:27 (22:27 UTC)

Prévision

Le bulletin a été fait il y a 7 heures et 22 minutes, à 15:05 UTC
Prévision valable du 06 à 18 UTC au 07 à 18 UTC
Vent 6 kt de est
Visibilité: 5000 m
brume sèche

TAF: ZBYN 061505Z 0618/0718 09003MPS 5000 HZ NSC TX20/0707Z TN07/0622Z

Observations et prévisions météorologiques de plus de 4000 aéroports (messages METAR et TAF).

Les stations disponibles sont représentées par des disques jaunes et rouges sur la carte.

Passer la souris dessus pour voir le nom de la station.

Cliquer dessus pour voir les observations et prévisions météorologiques.

Pour changer de carte: cliquez sur les boutons verts avec une croix noire pour zoomer, sur le bouton vert avec un tiret pour effectuer un zoom arrière, ou sur les flèches vertes pour les cartes adjacentes.


METAR-TAF: